Time;durP1;ratioP1;P1;durP2;ratioP2;P2;SDS_P1;SDS_P2;PMS_P1;PMS_P2;Temp;Humidity;BMP_temperature;BMP_pressure;BME280_temperature;BME280_humidity;BME280_pressure;Samples;Min_cycle;Max_cycle;Signal;HPM_P1;HPM_P2
2021/10/21 00:00:30;;;;;;;4.60;2.57;;;13.20;99.90;;;;;;5052106;28;20652;-48
2021/10/21 00:02:56;;;;;;;5.20;2.43;;;13.30;99.90;;;;;;5050047;28;20215;-49
2021/10/21 00:05:23;;;;;;;2.67;2.10;;;13.20;99.90;;;;;;5053256;28;20759;-47
2021/10/21 00:07:50;;;;;;;6.97;2.20;;;13.30;99.90;;;;;;5046120;28;20214;-44
2021/10/21 00:10:17;;;;;;;4.97;2.60;;;13.30;99.90;;;;;;5052139;28;20214;-47
2021/10/21 00:12:45;;;;;;;5.30;2.77;;;13.20;99.90;;;;;;5040062;28;20228;-44
2021/10/21 00:15:13;;;;;;;8.43;2.30;;;13.20;99.90;;;;;;5051084;28;20216;-45
2021/10/21 00:17:40;;;;;;;4.33;2.20;;;13.30;99.90;;;;;;5052529;28;20195;-44
2021/10/21 00:20:09;;;;;;;5.73;2.80;;;13.30;99.90;;;;;;5049030;28;20199;-48
2021/10/21 00:22:36;;;;;;;5.07;2.97;;;13.30;99.90;;;;;;5050559;28;20223;-47
2021/10/21 00:25:03;;;;;;;4.20;2.47;;;13.30;99.90;;;;;;5043913;28;20306;-50
2021/10/21 00:27:30;;;;;;;5.33;3.00;;;13.20;99.90;;;;;;5040252;28;20214;-53
2021/10/21 00:29:58;;;;;;;4.70;3.13;;;13.30;99.90;;;;;;5046795;28;20199;-52
2021/10/21 00:32:25;;;;;;;5.50;2.77;;;13.30;99.90;;;;;;5047102;28;20652;-49
2021/10/21 00:34:51;;;;;;;4.73;3.00;;;13.30;99.90;;;;;;5039391;28;20228;-47
2021/10/21 00:37:18;;;;;;;5.37;3.17;;;13.30;99.90;;;;;;5044966;28;20211;-49
2021/10/21 00:39:45;;;;;;;8.60;3.13;;;13.40;99.90;;;;;;5045132;28;20215;-46
2021/10/21 00:42:11;;;;;;;6.33;3.20;;;13.30;99.90;;;;;;5035037;28;20215;-46
2021/10/21 00:44:38;;;;;;;6.30;3.53;;;13.40;99.90;;;;;;5047545;28;20203;-49
2021/10/21 00:47:07;;;;;;;5.60;3.13;;;13.50;99.90;;;;;;5043607;28;20219;-48
2021/10/21 00:49:33;;;;;;;5.63;3.33;;;13.50;99.90;;;;;;5048862;28;20187;-51
2021/10/21 00:52:00;;;;;;;9.33;4.07;;;13.50;99.90;;;;;;5041043;28;20209;-45
2021/10/21 00:54:27;;;;;;;7.10;4.10;;;13.50;99.90;;;;;;5038325;28;20223;-48
2021/10/21 00:56:55;;;;;;;4.63;3.40;;;13.50;99.90;;;;;;5039227;28;20873;-46
2021/10/21 00:59:22;;;;;;;6.67;4.13;;;13.50;99.90;;;;;;5035915;28;20219;-46
2021/10/21 01:01:49;;;;;;;7.10;3.90;;;13.50;99.90;;;;;;5043217;28;20199;-47
2021/10/21 01:04:17;;;;;;;6.03;4.20;;;13.50;99.90;;;;;;5047191;28;20219;-46
2021/10/21 01:06:43;;;;;;;6.60;4.07;;;13.50;99.90;;;;;;5043547;28;20198;-49
2021/10/21 01:09:11;;;;;;;6.50;4.73;;;13.50;99.90;;;;;;5047215;28;20219;-47
2021/10/21 01:11:40;;;;;;;5.60;4.57;;;13.50;99.90;;;;;;5039726;28;20218;-43
2021/10/21 01:14:06;;;;;;;6.80;4.30;;;13.50;99.90;;;;;;5030002;28;20223;-47
2021/10/21 01:16:33;;;;;;;5.33;4.00;;;13.50;99.90;;;;;;5047294;28;20575;-49
2021/10/21 01:19:00;;;;;;;7.67;4.47;;;13.50;99.90;;;;;;5042533;28;20244;-48
2021/10/21 01:21:28;;;;;;;6.63;4.37;;;13.50;99.90;;;;;;5050650;28;20199;-43
2021/10/21 01:23:56;;;;;;;7.33;4.30;;;13.50;99.90;;;;;;5049627;28;20221;-49
2021/10/21 01:26:22;;;;;;;7.17;4.10;;;13.50;99.90;;;;;;5038370;28;20210;-48
2021/10/21 01:28:49;;;;;;;7.73;4.37;;;13.50;99.90;;;;;;5033865;28;20385;-50
2021/10/21 01:31:15;;;;;;;6.50;4.70;;;13.40;99.90;;;;;;5045945;28;20218;-51
2021/10/21 01:33:42;;;;;;;6.00;4.60;;;13.40;99.90;;;;;;5047377;28;20582;-47
2021/10/21 01:36:12;;;;;;;9.17;5.07;;;13.40;99.90;;;;;;5050834;28;20227;-45
2021/10/21 01:38:40;;;;;;;7.00;5.10;;;13.40;99.90;;;;;;5048411;28;20199;-46
2021/10/21 01:41:07;;;;;;;5.57;4.70;;;13.40;99.90;;;;;;5046915;28;20200;-47
2021/10/21 01:43:33;;;;;;;5.63;4.70;;;13.40;99.90;;;;;;5046639;28;20227;-46
2021/10/21 01:46:00;;;;;;;6.23;4.57;;;13.30;99.90;;;;;;5035050;28;21353;-49
2021/10/21 01:48:26;;;;;;;7.10;4.97;;;13.30;99.90;;;;;;5051269;28;20199;-48
2021/10/21 01:50:53;;;;;;;9.80;4.50;;;13.30;99.90;;;;;;5048295;28;20207;-47
2021/10/21 01:53:20;;;;;;;7.47;4.60;;;13.30;99.90;;;;;;5044198;28;20312;-52
2021/10/21 01:55:48;;;;;;;8.73;4.70;;;13.30;99.90;;;;;;5041761;28;20235;-48
2021/10/21 01:58:14;;;;;;;5.07;4.57;;;13.20;99.90;;;;;;5051530;28;20209;-51
2021/10/21 02:00:41;;;;;;;6.03;4.33;;;13.20;99.90;;;;;;5036972;28;20211;-47
2021/10/21 02:03:07;;;;;;;6.77;4.27;;;13.20;99.90;;;;;;5051340;28;20219;-48
2021/10/21 02:05:34;;;;;;;5.00;4.13;;;13.20;99.90;;;;;;5048387;28;20203;-46
2021/10/21 02:08:01;;;;;;;6.93;4.70;;;13.20;99.90;;;;;;5047374;28;20226;-48
2021/10/21 02:10:27;;;;;;;10.10;4.97;;;13.20;99.90;;;;;;5049900;28;20210;-50
2021/10/21 02:12:56;;;;;;;6.80;4.77;;;13.20;99.90;;;;;;5038339;28;21262;-46
2021/10/21 02:15:22;;;;;;;6.50;4.83;;;13.20;99.90;;;;;;5050474;28;20246;-50
2021/10/21 02:17:49;;;;;;;5.30;4.50;;;13.20;99.90;;;;;;5036042;28;20207;-46
2021/10/21 02:20:17;;;;;;;5.40;4.50;;;13.20;99.90;;;;;;5044849;28;20199;-46
2021/10/21 02:22:45;;;;;;;8.27;4.63;;;13.20;99.90;;;;;;5045767;28;20211;-50
2021/10/21 02:25:12;;;;;;;4.43;3.90;;;13.20;99.90;;;;;;5048648;28;20290;-44
2021/10/21 02:27:40;;;;;;;4.73;4.20;;;13.20;99.90;;;;;;5041742;28;20196;-45
2021/10/21 02:30:10;;;;;;;6.07;4.63;;;13.20;99.90;;;;;;5043676;28;20253;-47
2021/10/21 02:32:36;;;;;;;8.73;4.60;;;13.20;99.90;;;;;;5036232;28;20226;-43
2021/10/21 02:35:03;;;;;;;5.60;4.17;;;13.20;99.90;;;;;;5047881;28;20218;-46
2021/10/21 02:37:30;;;;;;;5.33;4.30;;;13.20;99.90;;;;;;5039861;28;20253;-46
2021/10/21 02:39:56;;;;;;;4.23;3.70;;;13.20;99.90;;;;;;5044794;28;20195;-47
2021/10/21 02:42:23;;;;;;;5.13;3.80;;;13.20;99.90;;;;;;5043148;28;20211;-43
2021/10/21 02:44:50;;;;;;;5.37;4.30;;;13.20;99.90;;;;;;5038346;28;20206;-48
2021/10/21 02:47:18;;;;;;;6.13;4.00;;;13.20;99.90;;;;;;5035110;28;20556;-47
2021/10/21 02:49:44;;;;;;;4.90;3.80;;;13.20;99.90;;;;;;5038058;28;20191;-47
2021/10/21 02:52:11;;;;;;;6.20;3.60;;;13.20;99.90;;;;;;5045101;28;20208;-45
2021/10/21 02:54:38;;;;;;;5.47;3.87;;;13.20;99.90;;;;;;5037452;28;20187;-48
2021/10/21 02:57:05;;;;;;;4.97;3.77;;;13.20;99.90;;;;;;5042765;28;20754;-47
2021/10/21 02:59:31;;;;;;;7.90;3.70;;;13.20;99.90;;;;;;5038559;28;20237;-45
2021/10/21 03:01:58;;;;;;;4.03;3.70;;;13.20;99.90;;;;;;5031521;28;20214;-48
2021/10/21 03:04:26;;;;;;;5.73;4.13;;;13.20;99.90;;;;;;5049014;28;20230;-44
2021/10/21 03:06:52;;;;;;;5.40;4.13;;;13.20;99.90;;;;;;5050385;28;20930;-46
2021/10/21 03:09:19;;;;;;;6.13;4.13;;;13.20;99.90;;;;;;5047279;28;20195;-47
2021/10/21 03:11:46;;;;;;;5.70;3.70;;;13.20;99.90;;;;;;5047232;28;20205;-47
2021/10/21 03:14:12;;;;;;;6.43;4.00;;;13.20;99.90;;;;;;5049024;28;20306;-48
2021/10/21 03:16:39;;;;;;;5.63;5.00;;;13.20;99.90;;;;;;5040663;28;20219;-50
2021/10/21 03:19:08;;;;;;;5.27;4.27;;;13.20;99.90;;;;;;5037336;28;20204;-48
2021/10/21 03:21:36;;;;;;;7.63;4.23;;;13.20;99.90;;;;;;5044713;28;20207;-45
2021/10/21 03:24:03;;;;;;;5.83;4.27;;;13.20;99.90;;;;;;5044188;28;20226;-48
2021/10/21 03:26:30;;;;;;;4.57;4.13;;;13.20;99.90;;;;;;5047421;28;20231;-45
2021/10/21 03:28:56;;;;;;;6.90;4.53;;;13.10;99.90;;;;;;5051344;28;20195;-51
2021/10/21 03:31:23;;;;;;;6.13;4.30;;;13.10;99.90;;;;;;5044239;28;20206;-45
2021/10/21 03:33:50;;;;;;;3.93;3.00;;;13.10;99.90;;;;;;5036740;28;21048;-49
2021/10/21 03:36:17;;;;;;;3.77;2.77;;;13.20;99.90;;;;;;5052360;28;20238;-50
2021/10/21 03:38:45;;;;;;;3.97;2.70;;;13.40;99.90;;;;;;5049587;28;20210;-50
2021/10/21 03:41:12;;;;;;;3.40;3.07;;;13.50;99.90;;;;;;5047611;28;20207;-47
2021/10/21 03:43:39;;;;;;;4.13;3.83;;;13.50;99.90;;;;;;5047047;28;20223;-47
2021/10/21 03:46:05;;;;;;;6.27;3.63;;;13.60;99.90;;;;;;5035278;28;20683;-45
2021/10/21 03:48:32;;;;;;;5.90;4.83;;;13.70;99.90;;;;;;5033200;28;20214;-48
2021/10/21 03:50:59;;;;;;;3.97;3.67;;;13.70;99.90;;;;;;5044890;28;20199;-47
2021/10/21 03:53:25;;;;;;;7.40;4.30;;;13.70;99.90;;;;;;5047073;28;20319;-46
2021/10/21 03:55:54;;;;;;;4.97;3.87;;;13.60;99.90;;;;;;5050041;28;20707;-46
2021/10/21 03:58:20;;;;;;;4.53;3.60;;;13.60;99.90;;;;;;5049717;28;20290;-45
2021/10/21 04:00:47;;;;;;;4.10;3.80;;;13.50;99.90;;;;;;5048176;28;20657;-47
2021/10/21 04:03:14;;;;;;;8.13;3.93;;;13.50;99.90;;;;;;5036964;28;20224;-46
2021/10/21 04:05:41;;;;;;;5.93;3.70;;;13.50;99.90;;;;;;5040498;28;20203;-43
2021/10/21 04:08:07;;;;;;;6.67;4.60;;;13.40;99.90;;;;;;5042314;28;20211;-47
2021/10/21 04:10:34;;;;;;;4.93;4.10;;;13.40;99.90;;;;;;5044129;28;20207;-44
2021/10/21 04:13:02;;;;;;;4.77;4.27;;;13.40;99.90;;;;;;5008093;28;987039;-47
2021/10/21 04:15:28;;;;;;;7.17;4.10;;;13.40;99.90;;;;;;5046535;28;20199;-48
2021/10/21 04:17:55;;;;;;;4.57;4.10;;;13.40;99.90;;;;;;5045024;28;20205;-52
2021/10/21 04:20:23;;;;;;;5.53;4.07;;;13.40;99.90;;;;;;5038478;28;20375;-49
2021/10/21 04:22:50;;;;;;;4.67;3.20;;;13.40;99.90;;;;;;5041229;28;20230;-47
2021/10/21 04:25:17;;;;;;;5.67;3.77;;;13.40;99.90;;;;;;5047394;28;20199;-49
2021/10/21 04:27:44;;;;;;;3.30;2.97;;;13.40;99.90;;;;;;5046412;28;20233;-45
2021/10/21 04:30:13;;;;;;;3.00;2.47;;;13.40;99.90;;;;;;5042759;28;20214;-50
2021/10/21 04:32:41;;;;;;;2.10;1.97;;;13.30;99.90;;;;;;5039217;28;20759;-46
2021/10/21 04:35:08;;;;;;;2.07;1.70;;;13.30;99.90;;;;;;5036577;28;20335;-49
2021/10/21 04:37:36;;;;;;;2.87;2.27;;;13.20;99.90;;;;;;5044785;28;20321;-44
2021/10/21 04:40:04;;;;;;;2.33;2.00;;;13.10;99.90;;;;;;5042103;28;20204;-44
2021/10/21 04:42:30;;;;;;;2.43;2.13;;;13.00;99.90;;;;;;5041240;28;20246;-48
2021/10/21 04:44:57;;;;;;;2.20;1.40;;;12.90;99.90;;;;;;5051864;28;20206;-45
2021/10/21 04:47:25;;;;;;;4.47;2.00;;;12.80;99.90;;;;;;5038467;28;20928;-48
2021/10/21 04:49:51;;;;;;;1.40;1.30;;;12.80;99.90;;;;;;5030935;28;20211;-46
2021/10/21 04:52:18;;;;;;;2.70;2.20;;;12.70;99.90;;;;;;5035647;28;20191;-47
2021/10/21 04:54:45;;;;;;;3.87;1.60;;;12.60;99.90;;;;;;5042478;28;20199;-48
2021/10/21 04:57:11;;;;;;;3.20;2.10;;;12.60;99.90;;;;;;5040127;28;20696;-44
2021/10/21 04:59:38;;;;;;;5.67;2.30;;;12.60;99.90;;;;;;5044010;28;20555;-46
2021/10/21 05:02:05;;;;;;;2.87;1.47;;;12.60;99.90;;;;;;5039398;28;20214;-42
2021/10/21 05:04:33;;;;;;;4.20;1.50;;;12.60;99.90;;;;;;5053231;22;20230;-51
2021/10/21 05:07:00;;;;;;;3.50;2.00;;;12.60;99.90;;;;;;5048423;28;20228;-50
2021/10/21 05:09:26;;;;;;;2.80;1.80;;;12.60;99.90;;;;;;5053860;28;20210;-55
2021/10/21 05:11:53;;;;;;;1.77;1.50;;;12.60;99.90;;;;;;5057994;28;20202;-54
2021/10/21 05:14:20;;;;;;;3.50;1.70;;;12.60;99.90;;;;;;5048612;28;20222;-56
2021/10/21 05:16:47;;;;;;;3.43;1.40;;;12.60;99.90;;;;;;5046208;28;20223;-52
2021/10/21 05:19:14;;;;;;;2.20;0.90;;;12.50;99.90;;;;;;5049935;28;20245;-54
2021/10/21 05:21:42;;;;;;;3.00;1.20;;;12.20;99.90;;;;;;5041363;28;20234;-53
2021/10/21 05:24:08;;;;;;;1.30;1.00;;;12.10;99.90;;;;;;5050520;28;20225;-54
2021/10/21 05:26:35;;;;;;;2.07;1.63;;;12.00;99.90;;;;;;5062488;28;20202;-55
2021/10/21 05:29:01;;;;;;;2.60;1.23;;;12.00;99.90;;;;;;5053398;28;20770;-53
2021/10/21 05:31:28;;;;;;;1.57;1.10;;;11.90;99.90;;;;;;5060786;28;20202;-52
2021/10/21 05:33:55;;;;;;;1.90;1.10;;;11.90;99.90;;;;;;5056565;28;20223;-52
2021/10/21 05:36:21;;;;;;;5.60;1.83;;;11.90;99.90;;;;;;5049402;28;20215;-52
2021/10/21 05:38:51;;;;;;;2.43;1.40;;;11.80;99.90;;;;;;5069326;28;20674;-53
2021/10/21 05:41:18;;;;;;;1.67;0.97;;;11.80;99.90;;;;;;5059611;28;20211;-53
2021/10/21 05:43:44;;;;;;;4.50;0.90;;;11.70;99.90;;;;;;5057429;28;20707;-52
2021/10/21 05:46:11;;;;;;;0.80;0.80;;;11.70;99.90;;;;;;5059516;28;20299;-51
2021/10/21 05:48:37;;;;;;;6.13;2.13;;;11.70;99.90;;;;;;5052427;28;20213;-51
2021/10/21 05:51:04;;;;;;;1.07;0.87;;;11.70;99.90;;;;;;5059207;28;20234;-49
2021/10/21 05:53:31;;;;;;;4.07;1.23;;;11.70;99.90;;;;;;5053529;28;20593;-53
2021/10/21 05:55:59;;;;;;;4.17;1.47;;;11.70;99.90;;;;;;5064944;28;20194;-50
2021/10/21 05:58:26;;;;;;;0.90;0.67;;;11.70;99.90;;;;;;5057884;28;21082;-51
2021/10/21 06:00:53;;;;;;;1.63;0.97;;;11.60;99.90;;;;;;5057528;28;20663;-54
2021/10/21 06:03:19;;;;;;;3.53;2.13;;;11.60;99.90;;;;;;5056779;28;20233;-54
2021/10/21 06:05:46;;;;;;;3.23;1.53;;;11.60;99.90;;;;;;5061796;28;20210;-52
2021/10/21 06:08:12;;;;;;;5.77;2.10;;;11.60;99.90;;;;;;5048992;28;20706;-52
2021/10/21 06:10:39;;;;;;;4.43;1.70;;;11.50;99.90;;;;;;5063836;28;20198;-52
2021/10/21 06:13:07;;;;;;;4.30;2.73;;;11.50;99.90;;;;;;5072549;28;20213;-50
2021/10/21 06:15:34;;;;;;;5.43;2.37;;;11.50;99.90;;;;;;5048620;28;20211;-50
2021/10/21 06:18:03;;;;;;;4.40;2.50;;;11.60;99.90;;;;;;5051500;28;20641;-53
2021/10/21 06:20:30;;;;;;;2.37;1.63;;;11.60;99.90;;;;;;5056876;28;20252;-49
2021/10/21 06:22:56;;;;;;;2.63;1.30;;;11.50;99.90;;;;;;5036237;28;20215;-50
2021/10/21 06:25:24;;;;;;;5.97;2.77;;;11.60;99.90;;;;;;5050878;28;20215;-48
2021/10/21 06:27:51;;;;;;;3.37;2.03;;;11.50;99.90;;;;;;5047647;28;20203;-48
2021/10/21 06:30:20;;;;;;;4.13;2.47;;;11.50;99.90;;;;;;5053428;28;20203;-48
2021/10/21 06:32:46;;;;;;;4.17;2.10;;;11.50;99.90;;;;;;5050990;28;20272;-49
2021/10/21 06:35:15;;;;;;;5.50;1.70;;;11.50;99.90;;;;;;5050567;28;20289;-49
2021/10/21 06:37:42;;;;;;;6.60;2.60;;;11.50;99.90;;;;;;5041480;28;20226;-50
2021/10/21 06:40:10;;;;;;;4.03;2.47;;;11.50;99.90;;;;;;5039762;28;20286;-51
2021/10/21 06:42:37;;;;;;;3.67;2.10;;;11.50;99.90;;;;;;5033934;28;20789;-50
2021/10/21 06:45:04;;;;;;;3.30;2.07;;;11.40;99.90;;;;;;5049166;28;20244;-51
2021/10/21 06:47:33;;;;;;;16.77;5.43;;;11.40;99.90;;;;;;5053178;28;20179;-51
2021/10/21 06:50:00;;;;;;;3.97;1.70;;;11.40;99.90;;;;;;5046138;28;20234;-54
2021/10/21 06:52:27;;;;;;;2.93;1.43;;;11.40;99.90;;;;;;5046992;28;20215;-53
2021/10/21 06:54:54;;;;;;;3.87;1.33;;;11.30;99.90;;;;;;5044460;28;20691;-51
2021/10/21 06:57:20;;;;;;;7.87;2.30;;;11.30;99.90;;;;;;5040271;28;20899;-49
2021/10/21 06:59:47;;;;;;;5.30;1.50;;;11.30;99.90;;;;;;5053424;28;20210;-53
2021/10/21 07:02:14;;;;;;;4.07;1.57;;;11.30;99.90;;;;;;5044007;28;20208;-52
2021/10/21 07:04:42;;;;;;;8.23;3.17;;;11.30;99.90;;;;;;5048333;28;20291;-49
2021/10/21 07:07:09;;;;;;;2.97;1.90;;;11.20;99.90;;;;;;5044427;28;20199;-51
2021/10/21 07:09:35;;;;;;;9.33;2.23;;;11.20;99.90;;;;;;5059537;28;20297;-48
2021/10/21 07:12:02;;;;;;;9.20;3.33;;;11.20;99.90;;;;;;5038323;28;20229;-52
2021/10/21 07:14:29;;;;;;;7.83;1.60;;;11.20;99.90;;;;;;5053287;28;20210;-49
2021/10/21 07:16:56;;;;;;;6.47;1.97;;;11.10;99.90;;;;;;5051418;28;20214;-48
2021/10/21 07:19:23;;;;;;;6.77;1.70;;;11.10;99.90;;;;;;5061870;28;20210;-46
2021/10/21 07:21:51;;;;;;;7.37;2.60;;;11.10;99.90;;;;;;5064928;28;20213;-51
2021/10/21 07:24:17;;;;;;;4.13;1.53;;;11.10;99.90;;;;;;5058997;28;20253;-49
2021/10/21 07:26:44;;;;;;;10.27;2.57;;;11.10;99.90;;;;;;5056845;28;20211;-49
2021/10/21 07:29:11;;;;;;;3.43;1.37;;;11.10;99.90;;;;;;5056673;28;20205;-52
2021/10/21 07:31:38;;;;;;;3.87;1.47;;;11.10;99.90;;;;;;5057563;28;20202;-50
2021/10/21 07:34:04;;;;;;;4.70;1.33;;;11.10;99.90;;;;;;5053784;28;20335;-51
2021/10/21 07:36:31;;;;;;;5.40;1.77;;;11.00;99.90;;;;;;5058037;28;20207;-53
2021/10/21 07:38:59;;;;;;;3.33;1.43;;;11.00;99.90;;;;;;5056093;28;20210;-52
2021/10/21 07:41:27;;;;;;;2.83;0.93;;;11.00;99.90;;;;;;5052155;28;20194;-52
2021/10/21 07:43:54;;;;;;;1.30;0.63;;;11.00;99.90;;;;;;5063443;28;20221;-48
2021/10/21 07:46:21;;;;;;;1.90;0.50;;;11.00;99.90;;;;;;5060459;28;20234;-52
2021/10/21 07:48:48;;;;;;;1.13;0.50;;;11.00;99.90;;;;;;5061235;28;20205;-51
2021/10/21 07:51:15;;;;;;;0.93;0.40;;;11.00;99.90;;;;;;5054271;28;20310;-52
2021/10/21 07:53:42;;;;;;;1.83;0.40;;;10.90;99.90;;;;;;5061791;28;20237;-48
2021/10/21 07:56:10;;;;;;;1.23;0.30;;;10.90;99.90;;;;;;5051133;28;24040;-48
2021/10/21 07:58:36;;;;;;;1.37;0.40;;;10.90;99.90;;;;;;5078384;28;20224;-49
2021/10/21 08:01:03;;;;;;;3.40;0.60;;;10.80;99.90;;;;;;5059053;28;20198;-49
2021/10/21 08:03:29;;;;;;;1.47;0.80;;;10.80;99.90;;;;;;5065509;28;20226;-48
2021/10/21 08:05:56;;;;;;;0.97;0.47;;;10.80;99.90;;;;;;5058024;28;20219;-48
2021/10/21 08:08:24;;;;;;;1.80;0.50;;;10.80;99.90;;;;;;5070434;28;20190;-48
2021/10/21 08:10:51;;;;;;;0.87;0.37;;;10.70;99.90;;;;;;5054192;28;20336;-52
2021/10/21 08:13:19;;;;;;;2.10;0.30;;;10.70;99.90;;;;;;5056824;28;20217;-47
2021/10/21 08:15:46;;;;;;;0.60;0.20;;;10.70;99.90;;;;;;5054190;28;20568;-52
2021/10/21 08:18:13;;;;;;;1.43;0.30;;;10.70;99.90;;;;;;5053359;28;20210;-50
2021/10/21 08:20:42;;;;;;;1.63;0.30;;;10.70;99.90;;;;;;5059442;28;20229;-48
2021/10/21 08:23:08;;;;;;;1.80;0.57;;;10.70;99.90;;;;;;5054621;28;20218;-50
2021/10/21 08:25:35;;;;;;;2.50;0.33;;;10.70;99.90;;;;;;5054422;28;20187;-47
2021/10/21 08:28:02;;;;;;;0.30;0.30;;;10.70;99.90;;;;;;5046518;28;20675;-48
2021/10/21 08:30:33;;;;;;;0.30;0.30;;;10.60;99.90;;;;;;5054237;28;20195;-52
2021/10/21 08:33:00;;;;;;;1.90;0.50;;;10.60;99.90;;;;;;5059561;28;20226;-53
2021/10/21 08:35:29;;;;;;;0.93;0.50;;;10.50;99.90;;;;;;5059533;28;20198;-48
2021/10/21 08:37:57;;;;;;;2.47;0.60;;;10.50;99.90;;;;;;5059327;28;20214;-54
2021/10/21 08:40:24;;;;;;;0.97;0.40;;;10.40;99.90;;;;;;5054069;28;20198;-48
2021/10/21 08:42:51;;;;;;;1.50;0.50;;;10.40;99.90;;;;;;5055025;28;20578;-54
2021/10/21 08:45:17;;;;;;;2.00;0.50;;;10.40;99.90;;;;;;5062371;28;20199;-49
2021/10/21 08:47:49;;;;;;;1.63;0.50;;;10.40;99.90;;;;;;5051069;28;20195;-53
2021/10/21 08:50:17;;;;;;;1.43;0.60;;;10.30;99.90;;;;;;5054052;28;20199;-52
2021/10/21 08:52:45;;;;;;;1.90;0.47;;;10.30;99.90;;;;;;5058458;28;20371;-51
2021/10/21 08:55:12;;;;;;;1.97;0.40;;;10.30;99.90;;;;;;5063047;28;20294;-48
2021/10/21 08:57:39;;;;;;;2.60;0.50;;;10.20;99.90;;;;;;5056939;28;20323;-48
2021/10/21 09:00:08;;;;;;;2.30;0.50;;;10.20;99.90;;;;;;5052487;28;20218;-51
2021/10/21 09:02:44;;;;;;;1.13;0.40;;;10.20;99.90;;;;;;5058077;28;20971;-48
2021/10/21 09:05:19;;;;;;;2.30;0.50;;;10.20;99.90;;;;;;5059296;28;20221;-51
2021/10/21 09:07:58;;;;;;;2.20;0.20;;;10.20;99.90;;;;;;5059079;28;20206;-51
2021/10/21 09:10:26;;;;;;;1.10;0.40;;;10.20;99.90;;;;;;5057191;28;20199;-47
2021/10/21 09:12:52;;;;;;;6.93;0.70;;;10.30;99.90;;;;;;5061624;28;20624;-50
2021/10/21 09:15:23;;;;;;;2.27;0.57;;;10.30;99.90;;;;;;5049182;28;20206;-51
2021/10/21 09:17:50;;;;;;;0.40;0.40;;;10.40;99.90;;;;;;5061518;28;20252;-49
2021/10/21 09:20:27;;;;;;;1.23;0.50;;;10.40;99.90;;;;;;5055354;28;20199;-54
2021/10/21 09:22:55;;;;;;;3.27;0.53;;;10.40;99.90;;;;;;5061093;28;20226;-52
2021/10/21 09:25:24;;;;;;;4.73;0.97;;;10.50;99.90;;;;;;5056981;28;20671;-53
2021/10/21 09:27:51;;;;;;;1.50;0.57;;;10.50;99.90;;;;;;5053419;28;20248;-49
2021/10/21 09:30:25;;;;;;;3.07;1.00;;;10.60;99.90;;;;;;5056281;28;20353;-47
2021/10/21 09:32:52;;;;;;;2.03;0.73;;;10.60;99.90;;;;;;5054603;28;20219;-48
2021/10/21 09:35:21;;;;;;;6.50;0.80;;;10.70;99.90;;;;;;5059976;28;20375;-48
2021/10/21 09:37:50;;;;;;;2.30;0.70;;;10.70;99.90;;;;;;5063385;28;20211;-51
2021/10/21 09:40:22;;;;;;;6.30;0.70;;;10.70;99.90;;;;;;5054857;28;20579;-48
2021/10/21 09:42:56;;;;;;;5.80;1.03;;;10.70;99.90;;;;;;5063449;28;20267;-48
2021/10/21 09:45:26;;;;;;;4.97;1.63;;;10.70;99.90;;;;;;5055886;28;20251;-48
2021/10/21 09:47:55;;;;;;;1.90;0.50;;;10.70;99.90;;;;;;5057850;28;20542;-49
2021/10/21 09:50:26;;;;;;;8.20;1.30;;;10.70;99.90;;;;;;5061460;28;20213;-53
2021/10/21 09:53:18;;;;;;;4.27;1.10;;;10.60;99.90;;;;;;5054816;28;20231;-52
2021/10/21 09:55:48;;;;;;;2.47;0.70;;;10.60;99.90;;;;;;5052607;28;20211;-50
2021/10/21 09:58:17;;;;;;;4.33;1.10;;;10.60;99.90;;;;;;5047211;28;20343;-48
2021/10/21 10:00:44;;;;;;;5.50;1.20;;;10.60;99.90;;;;;;5053339;28;20285;-51
2021/10/21 10:03:14;;;;;;;8.43;1.00;;;10.50;99.90;;;;;;5054317;28;20238;-52
2021/10/21 10:05:42;;;;;;;4.43;0.83;;;10.60;99.90;;;;;;5055618;28;20214;-50
2021/10/21 10:08:10;;;;;;;5.27;0.70;;;10.60;99.90;;;;;;5049759;28;20197;-50
2021/10/21 10:10:39;;;;;;;4.17;1.00;;;10.60;99.90;;;;;;5058468;28;20690;-51
2021/10/21 10:13:08;;;;;;;3.10;0.80;;;10.60;99.90;;;;;;5055323;28;20323;-52
2021/10/21 10:15:36;;;;;;;4.67;1.07;;;10.70;99.90;;;;;;5050050;28;20685;-50
2021/10/21 10:18:03;;;;;;;6.27;1.03;;;10.70;99.90;;;;;;5058874;28;20207;-48
2021/10/21 10:20:30;;;;;;;5.03;0.70;;;10.70;99.90;;;;;;5062375;28;20667;-49
2021/10/21 10:22:59;;;;;;;8.10;1.50;;;10.70;99.90;;;;;;5054051;28;20211;-50
2021/10/21 10:25:27;;;;;;;6.30;0.90;;;10.70;99.90;;;;;;5055327;28;20203;-51
2021/10/21 10:28:00;;;;;;;2.63;0.70;;;10.70;99.90;;;;;;5055045;28;20281;-54
2021/10/21 10:30:48;;;;;;;4.03;0.53;;;10.80;99.90;;;;;;5054946;28;20675;-48
2021/10/21 10:33:36;;;;;;;5.33;0.53;;;10.80;99.90;;;;;;5055877;28;20229;-51
2021/10/21 10:36:27;;;;;;;6.80;0.70;;;10.80;99.90;;;;;;5056008;28;20191;-54
2021/10/21 10:38:54;;;;;;;4.13;1.00;;;10.80;99.90;;;;;;5055977;28;20215;-51
2021/10/21 10:41:53;;;;;;;2.10;0.40;;;10.90;99.90;;;;;;5064079;28;20203;-51
2021/10/21 10:44:58;;;;;;;2.87;0.87;;;10.90;99.90;;;;;;5055118;28;20296;-52
2021/10/21 10:47:45;;;;;;;4.73;0.83;;;10.90;99.90;;;;;;5047179;28;20194;-52
2021/10/21 10:50:18;;;;;;;4.73;0.70;;;11.00;99.90;;;;;;5056365;28;20699;-53
2021/10/21 10:52:52;;;;;;;3.10;0.90;;;11.00;99.90;;;;;;5055828;28;20721;-53
2021/10/21 10:55:20;;;;;;;4.50;0.50;;;11.10;99.90;;;;;;5046499;28;20290;-53
2021/10/21 10:57:58;;;;;;;6.20;0.80;;;11.10;99.90;;;;;;5058110;28;20224;-54
2021/10/21 11:00:45;;;;;;;7.67;1.20;;;11.10;99.90;;;;;;5045369;28;20217;-52
2021/10/21 11:03:12;;;;;;;5.67;0.83;;;11.20;99.90;;;;;;5045954;28;20228;-49
2021/10/21 11:05:55;;;;;;;5.33;1.00;;;11.20;99.90;;;;;;5057907;28;20687;-52
2021/10/21 11:08:54;;;;;;;6.80;1.13;;;11.20;99.90;;;;;;5056336;28;20202;-49
2021/10/21 11:11:38;;;;;;;7.37;1.10;;;11.20;99.90;;;;;;5051395;28;20339;-51
2021/10/21 11:14:05;;;;;;;4.47;0.80;;;11.30;99.90;;;;;;5052784;28;21725;-54
2021/10/21 11:16:46;;;;;;;5.73;1.37;;;11.40;99.90;;;;;;5056233;28;20202;-52
2021/10/21 11:19:34;;;;;;;6.97;1.53;;;11.50;99.90;;;;;;5040732;28;20214;-49
2021/10/21 11:22:01;;;;;;;5.57;1.43;;;11.60;99.90;;;;;;5058383;28;20209;-52
2021/10/21 11:25:00;;;;;;;3.43;0.83;;;11.70;99.90;;;;;;5056369;28;20219;-51
2021/10/21 11:27:29;;;;;;;6.30;1.77;;;11.70;99.90;;;;;;5055312;28;20199;-50
2021/10/21 11:30:05;;;;;;;9.10;1.87;;;11.80;99.90;;;;;;5055864;28;20544;-48
2021/10/21 11:32:34;;;;;;;7.03;1.97;;;11.90;99.90;;;;;;5060204;28;20214;-52
2021/10/21 11:35:04;;;;;;;7.77;1.97;;;11.80;99.90;;;;;;5053119;28;20702;-52
2021/10/21 11:37:40;;;;;;;7.87;1.47;;;11.70;99.90;;;;;;5063717;28;20206;-52
2021/10/21 11:40:11;;;;;;;5.10;1.27;;;11.50;99.90;;;;;;5060372;28;20754;-50
2021/10/21 11:42:39;;;;;;;9.03;1.10;;;11.30;99.90;;;;;;5059760;28;20863;-50
2021/10/21 11:45:08;;;;;;;2.73;1.10;;;11.10;99.90;;;;;;5058219;28;20210;-52
2021/10/21 11:47:36;;;;;;;5.17;1.47;;;11.10;99.90;;;;;;5061147;28;20667;-51
2021/10/21 11:50:05;;;;;;;4.93;1.10;;;11.10;99.90;;;;;;5051743;28;20271;-54
2021/10/21 11:52:40;;;;;;;5.10;1.10;;;11.20;99.90;;;;;;5058558;28;20268;-54
2021/10/21 11:55:19;;;;;;;4.53;0.97;;;11.20;99.90;;;;;;5058516;28;20198;-48
2021/10/21 11:57:45;;;;;;;8.60;2.13;;;11.20;99.90;;;;;;5062674;28;20544;-52
2021/10/21 12:00:21;;;;;;;6.90;1.20;;;11.30;99.90;;;;;;5053376;28;20202;-46
2021/10/21 12:02:53;;;;;;;4.93;1.00;;;11.30;99.90;;;;;;5056184;28;20226;-49
2021/10/21 12:05:25;;;;;;;8.23;1.00;;;11.40;99.90;;;;;;5045767;28;20284;-50
2021/10/21 12:07:52;;;;;;;5.73;0.97;;;11.40;99.90;;;;;;5058466;28;20199;-47
2021/10/21 12:10:32;;;;;;;6.47;1.60;;;11.50;99.90;;;;;;5059293;28;20194;-45
2021/10/21 12:13:00;;;;;;;4.50;1.33;;;11.50;99.90;;;;;;5064242;28;20317;-46
2021/10/21 12:15:28;;;;;;;7.70;1.20;;;11.40;99.90;;;;;;5056961;28;20201;-48
2021/10/21 12:17:56;;;;;;;3.83;1.33;;;11.20;99.90;;;;;;5067868;28;20206;-48
2021/10/21 12:20:39;;;;;;;6.97;1.10;;;11.00;99.90;;;;;;5047032;28;20202;-49
2021/10/21 12:23:22;;;;;;;5.10;0.87;;;11.00;99.90;;;;;;5068183;28;20253;-46
2021/10/21 12:25:52;;;;;;;6.00;1.00;;;11.00;99.90;;;;;;5048632;28;20431;-46
2021/10/21 12:28:20;;;;;;;6.00;1.00;;;11.00;99.90;;;;;;5048350;28;21342;-45
2021/10/21 12:30:47;;;;;;;5.50;1.20;;;11.00;99.90;;;;;;5062360;28;20614;-47
2021/10/21 12:33:18;;;;;;;7.60;1.57;;;10.90;99.90;;;;;;5054493;28;20219;-49
2021/10/21 12:36:03;;;;;;;7.93;1.33;;;10.90;99.90;;;;;;5061989;28;20235;-44
2021/10/21 12:38:31;;;;;;;4.23;0.97;;;10.80;99.90;;;;;;5051631;28;20238;-46
2021/10/21 12:41:02;;;;;;;7.27;0.90;;;10.80;99.90;;;;;;5058737;28;20785;-47
2021/10/21 12:43:29;;;;;;;3.57;1.03;;;10.80;99.90;;;;;;5057684;28;20214;-49
2021/10/21 12:45:57;;;;;;;3.57;0.87;;;10.80;99.90;;;;;;5063864;28;20227;-46
2021/10/21 12:48:26;;;;;;;1.90;0.90;;;10.90;99.90;;;;;;5049073;28;20397;-52
2021/10/21 12:50:54;;;;;;;6.87;0.97;;;10.90;99.90;;;;;;5056975;28;20860;-46
2021/10/21 12:53:21;;;;;;;7.17;1.40;;;10.80;99.90;;;;;;5046056;28;20215;-45